Foshan, China
Current Conditions -  °F | °C
As of 1:30 AM on Friday 24 Oct 2014 (Local Time) from ZGGG Reporting Station
Broken Clouds Broken Clouds  
Wind Chill: 73°   Ceiling: 3600
Heat Index: 73°   Visibility: 4mi
Dew Point: 66°   Wind: 2mph
Humidity: 78%   Direction: 50°NE
Pressure: 29.97"   Gusts: NA
Location:  23.03°N, 113.12°E
Report Text: ZGGG 231730Z 05001MPS 6000 BKN036 23/19 Q1015 NOSIG
Loading
Personal Weather Stations






























Interactive Weather Map
Tropical Storm Tracking
New forecast layout! Learn more

10-Day Weather Forecast

Advertisements
Track Severe Weather on mobile